sensor_id;sensor_type;location;lat;lon;timestamp;temperature;humidity
18392;DHT22;9322;50.932;5.318;2022-10-19T00:01:37;11.50;99.90
18392;DHT22;9322;50.932;5.318;2022-10-19T00:04:03;11.20;99.90
18392;DHT22;9322;50.932;5.318;2022-10-19T00:06:32;11.00;99.90
18392;DHT22;9322;50.932;5.318;2022-10-19T00:08:58;10.90;99.90
18392;DHT22;9322;50.932;5.318;2022-10-19T00:11:25;11.00;99.90
18392;DHT22;9322;50.932;5.318;2022-10-19T00:13:53;10.90;99.90
18392;DHT22;9322;50.932;5.318;2022-10-19T00:16:22;10.90;99.90
18392;DHT22;9322;50.932;5.318;2022-10-19T00:18:48;10.70;99.90
18392;DHT22;9322;50.932;5.318;2022-10-19T00:21:16;10.70;99.90
18392;DHT22;9322;50.932;5.318;2022-10-19T00:23:43;10.70;99.90
18392;DHT22;9322;50.932;5.318;2022-10-19T00:26:09;10.70;99.90
18392;DHT22;9322;50.932;5.318;2022-10-19T00:28:35;10.60;99.90
18392;DHT22;9322;50.932;5.318;2022-10-19T00:31:06;10.40;99.90
18392;DHT22;9322;50.932;5.318;2022-10-19T00:33:32;10.60;99.90
18392;DHT22;9322;50.932;5.318;2022-10-19T00:35:58;10.40;99.90
18392;DHT22;9322;50.932;5.318;2022-10-19T00:38:24;10.40;99.90
18392;DHT22;9322;50.932;5.318;2022-10-19T00:40:49;10.30;99.90
18392;DHT22;9322;50.932;5.318;2022-10-19T00:43:23;10.30;99.90
18392;DHT22;9322;50.932;5.318;2022-10-19T00:45:49;10.30;99.90
18392;DHT22;9322;50.932;5.318;2022-10-19T00:48:23;10.60;99.90
18392;DHT22;9322;50.932;5.318;2022-10-19T00:50:52;10.30;99.90
18392;DHT22;9322;50.932;5.318;2022-10-19T00:53:19;10.40;99.90
18392;DHT22;9322;50.932;5.318;2022-10-19T00:55:45;10.40;99.90
18392;DHT22;9322;50.932;5.318;2022-10-19T00:58:12;10.40;99.90
18392;DHT22;9322;50.932;5.318;2022-10-19T01:00:38;10.40;99.90
18392;DHT22;9322;50.932;5.318;2022-10-19T01:03:04;10.30;99.90
18392;DHT22;9322;50.932;5.318;2022-10-19T01:05:31;10.40;99.90
18392;DHT22;9322;50.932;5.318;2022-10-19T01:07:58;10.50;99.90
18392;DHT22;9322;50.932;5.318;2022-10-19T01:10:37;10.60;99.90
18392;DHT22;9322;50.932;5.318;2022-10-19T01:13:18;10.70;99.90
18392;DHT22;9322;50.932;5.318;2022-10-19T01:18:49;10.80;99.90
18392;DHT22;9322;50.932;5.318;2022-10-19T01:21:20;10.90;99.90
18392;DHT22;9322;50.932;5.318;2022-10-19T01:24:48;10.90;99.90
18392;DHT22;9322;50.932;5.318;2022-10-19T01:46:12;10.80;99.90
18392;DHT22;9322;50.932;5.318;2022-10-19T01:48:49;10.90;99.90
18392;DHT22;9322;50.932;5.318;2022-10-19T01:51:20;10.70;99.90
18392;DHT22;9322;50.932;5.318;2022-10-19T01:53:50;10.60;99.90
18392;DHT22;9322;50.932;5.318;2022-10-19T01:56:20;10.60;99.90
18392;DHT22;9322;50.932;5.318;2022-10-19T01:58:48;10.50;99.90
18392;DHT22;9322;50.932;5.318;2022-10-19T02:01:18;10.40;99.90
18392;DHT22;9322;50.932;5.318;2022-10-19T02:03:44;10.20;99.90
18392;DHT22;9322;50.932;5.318;2022-10-19T02:06:12;10.30;99.90
18392;DHT22;9322;50.932;5.318;2022-10-19T02:08:49;10.20;99.90
18392;DHT22;9322;50.932;5.318;2022-10-19T02:11:16;10.10;99.90
18392;DHT22;9322;50.932;5.318;2022-10-19T02:13:42;10.10;99.90
18392;DHT22;9322;50.932;5.318;2022-10-19T02:16:13;10.20;99.90
18392;DHT22;9322;50.932;5.318;2022-10-19T02:18:44;10.20;99.90
18392;DHT22;9322;50.932;5.318;2022-10-19T02:21:11;10.20;99.90
18392;DHT22;9322;50.932;5.318;2022-10-19T02:23:37;10.00;99.90
18392;DHT22;9322;50.932;5.318;2022-10-19T02:26:03;10.00;99.90
18392;DHT22;9322;50.932;5.318;2022-10-19T02:28:29;9.90;99.90
18392;DHT22;9322;50.932;5.318;2022-10-19T02:30:56;9.70;99.90
18392;DHT22;9322;50.932;5.318;2022-10-19T02:33:22;9.70;99.90
18392;DHT22;9322;50.932;5.318;2022-10-19T02:35:48;9.60;99.90
18392;DHT22;9322;50.932;5.318;2022-10-19T02:38:19;9.50;99.90
18392;DHT22;9322;50.932;5.318;2022-10-19T02:43:37;9.60;99.90
18392;DHT22;9322;50.932;5.318;2022-10-19T02:46:08;9.50;99.90
18392;DHT22;9322;50.932;5.318;2022-10-19T02:48:37;9.60;99.90
18392;DHT22;9322;50.932;5.318;2022-10-19T02:51:04;9.50;99.90
18392;DHT22;9322;50.932;5.318;2022-10-19T02:53:29;9.40;99.90
18392;DHT22;9322;50.932;5.318;2022-10-19T02:55:55;9.40;99.90
18392;DHT22;9322;50.932;5.318;2022-10-19T02:58:20;9.50;99.90
18392;DHT22;9322;50.932;5.318;2022-10-19T03:00:46;9.50;99.90
18392;DHT22;9322;50.932;5.318;2022-10-19T03:03:12;9.60;99.90
18392;DHT22;9322;50.932;5.318;2022-10-19T03:05:38;9.60;99.90
18392;DHT22;9322;50.932;5.318;2022-10-19T03:08:03;9.60;99.90
18392;DHT22;9322;50.932;5.318;2022-10-19T03:10:29;9.60;99.90
18392;DHT22;9322;50.932;5.318;2022-10-19T03:12:56;9.60;99.90
18392;DHT22;9322;50.932;5.318;2022-10-19T03:15:22;9.70;99.90
18392;DHT22;9322;50.932;5.318;2022-10-19T03:17:52;9.60;99.90
18392;DHT22;9322;50.932;5.318;2022-10-19T03:20:18;9.60;99.90
18392;DHT22;9322;50.932;5.318;2022-10-19T03:22:44;9.60;99.90
18392;DHT22;9322;50.932;5.318;2022-10-19T03:25:09;9.70;99.90
18392;DHT22;9322;50.932;5.318;2022-10-19T03:27:36;9.80;99.90
18392;DHT22;9322;50.932;5.318;2022-10-19T03:30:02;9.70;99.90
18392;DHT22;9322;50.932;5.318;2022-10-19T03:32:27;9.70;99.90
18392;DHT22;9322;50.932;5.318;2022-10-19T03:34:53;9.60;99.90
18392;DHT22;9322;50.932;5.318;2022-10-19T03:37:19;9.60;99.90
18392;DHT22;9322;50.932;5.318;2022-10-19T03:39:44;9.50;99.90
18392;DHT22;9322;50.932;5.318;2022-10-19T03:42:10;9.80;99.90
18392;DHT22;9322;50.932;5.318;2022-10-19T03:44:35;9.60;99.90
18392;DHT22;9322;50.932;5.318;2022-10-19T03:47:01;9.70;99.90
18392;DHT22;9322;50.932;5.318;2022-10-19T03:49:27;9.80;99.90
18392;DHT22;9322;50.932;5.318;2022-10-19T03:51:52;9.50;99.90
18392;DHT22;9322;50.932;5.318;2022-10-19T03:54:18;9.60;99.90
18392;DHT22;9322;50.932;5.318;2022-10-19T03:56:44;9.60;99.90
18392;DHT22;9322;50.932;5.318;2022-10-19T03:59:12;9.60;99.90
18392;DHT22;9322;50.932;5.318;2022-10-19T04:01:42;9.60;99.90
18392;DHT22;9322;50.932;5.318;2022-10-19T04:04:13;9.90;99.90
18392;DHT22;9322;50.932;5.318;2022-10-19T04:06:41;9.50;99.90
18392;DHT22;9322;50.932;5.318;2022-10-19T04:09:09;9.50;99.90
18392;DHT22;9322;50.932;5.318;2022-10-19T04:11:36;9.50;99.90
18392;DHT22;9322;50.932;5.318;2022-10-19T04:14:03;9.50;99.90
18392;DHT22;9322;50.932;5.318;2022-10-19T04:16:30;9.50;99.90
18392;DHT22;9322;50.932;5.318;2022-10-19T04:18:58;9.50;99.90
18392;DHT22;9322;50.932;5.318;2022-10-19T04:21:30;9.40;99.90
18392;DHT22;9322;50.932;5.318;2022-10-19T04:26:30;9.30;99.90
18392;DHT22;9322;50.932;5.318;2022-10-19T04:28:57;9.30;99.90
18392;DHT22;9322;50.932;5.318;2022-10-19T04:31:22;9.50;99.90
18392;DHT22;9322;50.932;5.318;2022-10-19T04:33:48;9.50;99.90
18392;DHT22;9322;50.932;5.318;2022-10-19T04:36:14;9.30;99.90
18392;DHT22;9322;50.932;5.318;2022-10-19T04:38:40;9.40;99.90
18392;DHT22;9322;50.932;5.318;2022-10-19T04:41:11;9.40;99.90
18392;DHT22;9322;50.932;5.318;2022-10-19T04:43:38;9.40;99.90
18392;DHT22;9322;50.932;5.318;2022-10-19T04:46:12;9.40;99.90
18392;DHT22;9322;50.932;5.318;2022-10-19T04:48:39;9.50;99.90
18392;DHT22;9322;50.932;5.318;2022-10-19T04:51:05;9.40;99.90
18392;DHT22;9322;50.932;5.318;2022-10-19T04:53:32;9.50;99.90
18392;DHT22;9322;50.932;5.318;2022-10-19T04:55:58;9.40;99.90
18392;DHT22;9322;50.932;5.318;2022-10-19T04:58:24;9.40;99.90
18392;DHT22;9322;50.932;5.318;2022-10-19T05:00:50;9.30;99.90
18392;DHT22;9322;50.932;5.318;2022-10-19T05:03:16;9.40;99.90
18392;DHT22;9322;50.932;5.318;2022-10-19T05:05:42;9.30;99.90
18392;DHT22;9322;50.932;5.318;2022-10-19T05:08:09;9.30;99.90
18392;DHT22;9322;50.932;5.318;2022-10-19T05:10:36;9.30;99.90
18392;DHT22;9322;50.932;5.318;2022-10-19T05:13:02;9.30;99.90
18392;DHT22;9322;50.932;5.318;2022-10-19T05:15:28;9.20;99.90
18392;DHT22;9322;50.932;5.318;2022-10-19T05:17:54;9.20;99.90
18392;DHT22;9322;50.932;5.318;2022-10-19T05:20:20;9.20;99.90
18392;DHT22;9322;50.932;5.318;2022-10-19T05:22:45;9.20;99.90
18392;DHT22;9322;50.932;5.318;2022-10-19T05:25:11;9.00;99.90
18392;DHT22;9322;50.932;5.318;2022-10-19T05:27:37;9.30;99.90
18392;DHT22;9322;50.932;5.318;2022-10-19T05:30:03;9.00;99.90
18392;DHT22;9322;50.932;5.318;2022-10-19T05:32:29;9.00;99.90
18392;DHT22;9322;50.932;5.318;2022-10-19T05:34:54;9.00;99.90
18392;DHT22;9322;50.932;5.318;2022-10-19T05:37:20;8.90;99.90
18392;DHT22;9322;50.932;5.318;2022-10-19T05:39:46;9.00;99.90
18392;DHT22;9322;50.932;5.318;2022-10-19T05:42:12;9.00;99.90
18392;DHT22;9322;50.932;5.318;2022-10-19T05:44:37;8.90;99.90
18392;DHT22;9322;50.932;5.318;2022-10-19T05:47:03;9.00;99.90
18392;DHT22;9322;50.932;5.318;2022-10-19T05:49:29;9.00;99.90
18392;DHT22;9322;50.932;5.318;2022-10-19T05:51:55;8.90;99.90
18392;DHT22;9322;50.932;5.318;2022-10-19T05:54:20;8.90;99.90
18392;DHT22;9322;50.932;5.318;2022-10-19T05:56:46;8.90;99.90
18392;DHT22;9322;50.932;5.318;2022-10-19T05:59:20;8.90;99.90
18392;DHT22;9322;50.932;5.318;2022-10-19T06:01:46;8.80;99.90
18392;DHT22;9322;50.932;5.318;2022-10-19T06:04:12;8.80;99.90
18392;DHT22;9322;50.932;5.318;2022-10-19T06:06:40;9.00;99.90
18392;DHT22;9322;50.932;5.318;2022-10-19T06:09:06;8.90;99.90
18392;DHT22;9322;50.932;5.318;2022-10-19T06:11:34;8.80;99.90
18392;DHT22;9322;50.932;5.318;2022-10-19T06:14:02;8.80;99.90
18392;DHT22;9322;50.932;5.318;2022-10-19T06:16:30;8.80;99.90
18392;DHT22;9322;50.932;5.318;2022-10-19T06:18:56;8.80;99.90
18392;DHT22;9322;50.932;5.318;2022-10-19T06:21:24;8.80;99.90
18392;DHT22;9322;50.932;5.318;2022-10-19T06:23:52;8.80;99.90
18392;DHT22;9322;50.932;5.318;2022-10-19T06:26:19;8.90;99.90
18392;DHT22;9322;50.932;5.318;2022-10-19T06:28:45;8.90;99.90
18392;DHT22;9322;50.932;5.318;2022-10-19T06:31:11;9.00;99.90
18392;DHT22;9322;50.932;5.318;2022-10-19T06:33:42;9.10;99.90
18392;DHT22;9322;50.932;5.318;2022-10-19T06:36:16;9.20;99.90
18392;DHT22;9322;50.932;5.318;2022-10-19T06:38:43;9.60;99.90
18392;DHT22;9322;50.932;5.318;2022-10-19T06:41:09;10.10;99.90
18392;DHT22;9322;50.932;5.318;2022-10-19T06:43:35;10.50;99.90
18392;DHT22;9322;50.932;5.318;2022-10-19T06:46:05;11.10;99.90
18392;DHT22;9322;50.932;5.318;2022-10-19T06:48:31;11.50;99.90
18392;DHT22;9322;50.932;5.318;2022-10-19T06:51:01;12.00;99.90
18392;DHT22;9322;50.932;5.318;2022-10-19T06:53:28;12.40;99.90
18392;DHT22;9322;50.932;5.318;2022-10-19T06:55:57;12.80;99.90
18392;DHT22;9322;50.932;5.318;2022-10-19T06:58:23;12.80;99.90
18392;DHT22;9322;50.932;5.318;2022-10-19T07:00:54;13.00;99.90
18392;DHT22;9322;50.932;5.318;2022-10-19T07:03:22;13.70;99.90
18392;DHT22;9322;50.932;5.318;2022-10-19T07:05:58;14.00;99.90
18392;DHT22;9322;50.932;5.318;2022-10-19T07:08:26;13.90;99.90
18392;DHT22;9322;50.932;5.318;2022-10-19T07:10:55;14.00;99.90
18392;DHT22;9322;50.932;5.318;2022-10-19T07:13:21;13.70;99.90
18392;DHT22;9322;50.932;5.318;2022-10-19T07:15:47;13.90;99.90
18392;DHT22;9322;50.932;5.318;2022-10-19T07:18:13;14.40;99.90
18392;DHT22;9322;50.932;5.318;2022-10-19T07:20:39;14.40;99.90
18392;DHT22;9322;50.932;5.318;2022-10-19T07:23:04;14.30;99.90
18392;DHT22;9322;50.932;5.318;2022-10-19T07:25:30;14.50;99.90
18392;DHT22;9322;50.932;5.318;2022-10-19T07:27:56;14.60;99.90
18392;DHT22;9322;50.932;5.318;2022-10-19T07:30:22;14.80;99.90
18392;DHT22;9322;50.932;5.318;2022-10-19T07:32:48;15.20;97.00
18392;DHT22;9322;50.932;5.318;2022-10-19T07:35:14;15.90;88.00
18392;DHT22;9322;50.932;5.318;2022-10-19T07:37:40;15.80;87.80
18392;DHT22;9322;50.932;5.318;2022-10-19T07:40:06;15.90;86.00
18392;DHT22;9322;50.932;5.318;2022-10-19T07:42:32;16.40;83.50
18392;DHT22;9322;50.932;5.318;2022-10-19T07:44:57;16.50;80.10
18392;DHT22;9322;50.932;5.318;2022-10-19T07:47:23;16.90;81.20
18392;DHT22;9322;50.932;5.318;2022-10-19T07:49:49;17.00;76.60
18392;DHT22;9322;50.932;5.318;2022-10-19T07:52:14;16.60;78.50
18392;DHT22;9322;50.932;5.318;2022-10-19T07:54:40;17.00;78.90
18392;DHT22;9322;50.932;5.318;2022-10-19T07:57:06;17.30;76.00
18392;DHT22;9322;50.932;5.318;2022-10-19T07:59:31;17.80;72.30
18392;DHT22;9322;50.932;5.318;2022-10-19T08:01:58;18.30;69.40
18392;DHT22;9322;50.932;5.318;2022-10-19T08:04:26;18.30;69.40
18392;DHT22;9322;50.932;5.318;2022-10-19T08:06:52;18.20;67.40
18392;DHT22;9322;50.932;5.318;2022-10-19T08:09:18;17.60;71.50
18392;DHT22;9322;50.932;5.318;2022-10-19T08:11:43;18.10;71.60
18392;DHT22;9322;50.932;5.318;2022-10-19T08:14:09;18.10;72.20
18392;DHT22;9322;50.932;5.318;2022-10-19T08:16:37;18.80;65.30
18392;DHT22;9322;50.932;5.318;2022-10-19T08:19:13;19.50;64.00
18392;DHT22;9322;50.932;5.318;2022-10-19T08:21:40;19.40;62.80
18392;DHT22;9322;50.932;5.318;2022-10-19T08:24:07;19.40;61.80
18392;DHT22;9322;50.932;5.318;2022-10-19T08:26:37;19.60;61.60
18392;DHT22;9322;50.932;5.318;2022-10-19T08:29:06;19.00;62.50
18392;DHT22;9322;50.932;5.318;2022-10-19T08:31:32;19.10;62.90
18392;DHT22;9322;50.932;5.318;2022-10-19T08:33:57;19.30;60.40
18392;DHT22;9322;50.932;5.318;2022-10-19T08:36:23;18.50;65.30
18392;DHT22;9322;50.932;5.318;2022-10-19T08:38:50;18.40;65.30
18392;DHT22;9322;50.932;5.318;2022-10-19T08:47:03;17.80;67.50
18392;DHT22;9322;50.932;5.318;2022-10-19T08:49:32;18.30;65.20
18392;DHT22;9322;50.932;5.318;2022-10-19T08:52:01;18.30;64.40
18392;DHT22;9322;50.932;5.318;2022-10-19T08:54:51;18.80;62.50
18392;DHT22;9322;50.932;5.318;2022-10-19T08:58:02;18.70;62.60
18392;DHT22;9322;50.932;5.318;2022-10-19T09:00:42;18.40;65.20
18392;DHT22;9322;50.932;5.318;2022-10-19T09:03:41;18.00;65.50
18392;DHT22;9322;50.932;5.318;2022-10-19T09:08:50;17.90;67.50
18392;DHT22;9322;50.932;5.318;2022-10-19T09:11:22;18.10;66.90
18392;DHT22;9322;50.932;5.318;2022-10-19T09:14:11;18.80;62.50
18392;DHT22;9322;50.932;5.318;2022-10-19T09:16:38;19.00;62.40
18392;DHT22;9322;50.932;5.318;2022-10-19T09:19:30;19.50;60.80
18392;DHT22;9322;50.932;5.318;2022-10-19T09:24:31;19.50;60.00
18392;DHT22;9322;50.932;5.318;2022-10-19T09:27:00;19.90;60.30
18392;DHT22;9322;50.932;5.318;2022-10-19T09:29:28;20.30;58.80
18392;DHT22;9322;50.932;5.318;2022-10-19T09:31:59;21.00;56.80
18392;DHT22;9322;50.932;5.318;2022-10-19T09:34:37;20.70;58.20
18392;DHT22;9322;50.932;5.318;2022-10-19T09:37:05;20.30;58.40
18392;DHT22;9322;50.932;5.318;2022-10-19T09:39:31;20.80;58.70
18392;DHT22;9322;50.932;5.318;2022-10-19T09:41:58;21.00;57.40
18392;DHT22;9322;50.932;5.318;2022-10-19T09:44:26;20.70;57.20
18392;DHT22;9322;50.932;5.318;2022-10-19T09:47:02;20.60;56.70
18392;DHT22;9322;50.932;5.318;2022-10-19T09:49:43;20.80;57.00
18392;DHT22;9322;50.932;5.318;2022-10-19T09:52:32;19.90;58.70
18392;DHT22;9322;50.932;5.318;2022-10-19T09:57:31;19.90;60.20
18392;DHT22;9322;50.932;5.318;2022-10-19T09:59:57;20.60;58.00
18392;DHT22;9322;50.932;5.318;2022-10-19T10:02:32;21.30;55.20
18392;DHT22;9322;50.932;5.318;2022-10-19T10:05:12;21.10;55.30
18392;DHT22;9322;50.932;5.318;2022-10-19T10:07:38;20.40;56.40
18392;DHT22;9322;50.932;5.318;2022-10-19T10:10:27;19.90;59.80
18392;DHT22;9322;50.932;5.318;2022-10-19T10:12:53;20.40;58.30
18392;DHT22;9322;50.932;5.318;2022-10-19T10:15:25;20.60;57.20
18392;DHT22;9322;50.932;5.318;2022-10-19T10:17:53;20.40;56.60
18392;DHT22;9322;50.932;5.318;2022-10-19T10:20:30;20.90;57.60
18392;DHT22;9322;50.932;5.318;2022-10-19T10:22:58;21.70;54.60
18392;DHT22;9322;50.932;5.318;2022-10-19T10:25:32;21.40;53.80
18392;DHT22;9322;50.932;5.318;2022-10-19T10:28:05;21.60;54.20
18392;DHT22;9322;50.932;5.318;2022-10-19T10:30:44;21.70;54.30
18392;DHT22;9322;50.932;5.318;2022-10-19T10:33:20;22.40;52.40
18392;DHT22;9322;50.932;5.318;2022-10-19T10:35:52;21.40;53.60
18392;DHT22;9322;50.932;5.318;2022-10-19T10:38:26;22.00;54.10
18392;DHT22;9322;50.932;5.318;2022-10-19T10:40:59;22.60;50.80
18392;DHT22;9322;50.932;5.318;2022-10-19T10:43:38;23.40;48.60
18392;DHT22;9322;50.932;5.318;2022-10-19T10:46:07;22.70;50.20
18392;DHT22;9322;50.932;5.318;2022-10-19T10:48:41;22.70;50.10
18392;DHT22;9322;50.932;5.318;2022-10-19T10:51:20;23.10;49.40
18392;DHT22;9322;50.932;5.318;2022-10-19T10:53:48;23.20;48.80
18392;DHT22;9322;50.932;5.318;2022-10-19T10:56:28;23.30;48.60
18392;DHT22;9322;50.932;5.318;2022-10-19T10:59:30;23.70;47.60
18392;DHT22;9322;50.932;5.318;2022-10-19T11:04:40;23.10;48.20
18392;DHT22;9322;50.932;5.318;2022-10-19T11:07:27;22.80;48.20
18392;DHT22;9322;50.932;5.318;2022-10-19T11:09:57;22.60;49.20
18392;DHT22;9322;50.932;5.318;2022-10-19T11:12:38;22.40;50.10
18392;DHT22;9322;50.932;5.318;2022-10-19T11:15:21;22.70;49.40
18392;DHT22;9322;50.932;5.318;2022-10-19T11:17:56;23.30;47.50
18392;DHT22;9322;50.932;5.318;2022-10-19T11:20:28;23.30;47.80
18392;DHT22;9322;50.932;5.318;2022-10-19T11:25:48;24.00;45.90
18392;DHT22;9322;50.932;5.318;2022-10-19T11:33:42;23.60;45.80
18392;DHT22;9322;50.932;5.318;2022-10-19T11:47:49;22.40;49.20
18392;DHT22;9322;50.932;5.318;2022-10-19T11:50:45;22.20;49.00
18392;DHT22;9322;50.932;5.318;2022-10-19T12:01:57;21.10;50.40
18392;DHT22;9322;50.932;5.318;2022-10-19T12:05:03;21.10;51.40
18392;DHT22;9322;50.932;5.318;2022-10-19T12:07:39;21.10;52.40
18392;DHT22;9322;50.932;5.318;2022-10-19T12:13:15;20.30;54.50
18392;DHT22;9322;50.932;5.318;2022-10-19T12:15:48;20.50;55.40
18392;DHT22;9322;50.932;5.318;2022-10-19T12:18:38;20.20;55.60
18392;DHT22;9322;50.932;5.318;2022-10-19T12:21:27;19.50;57.50
18392;DHT22;9322;50.932;5.318;2022-10-19T12:23:58;18.90;60.20
18392;DHT22;9322;50.932;5.318;2022-10-19T12:26:27;18.40;62.70
18392;DHT22;9322;50.932;5.318;2022-10-19T12:29:00;18.30;63.80
18392;DHT22;9322;50.932;5.318;2022-10-19T12:31:28;18.30;63.50
18392;DHT22;9322;50.932;5.318;2022-10-19T12:44:40;17.40;69.00
18392;DHT22;9322;50.932;5.318;2022-10-19T12:47:16;17.50;70.20
18392;DHT22;9322;50.932;5.318;2022-10-19T12:49:47;17.60;70.50
18392;DHT22;9322;50.932;5.318;2022-10-19T12:52:32;17.40;69.60
18392;DHT22;9322;50.932;5.318;2022-10-19T12:57:38;17.60;70.60
18392;DHT22;9322;50.932;5.318;2022-10-19T13:00:24;17.50;71.20
18392;DHT22;9322;50.932;5.318;2022-10-19T13:03:16;17.30;71.70
18392;DHT22;9322;50.932;5.318;2022-10-19T13:05:59;17.30;73.00
18392;DHT22;9322;50.932;5.318;2022-10-19T13:08:37;17.40;72.60
18392;DHT22;9322;50.932;5.318;2022-10-19T13:11:10;17.50;72.00
18392;DHT22;9322;50.932;5.318;2022-10-19T13:14:03;17.40;73.30
18392;DHT22;9322;50.932;5.318;2022-10-19T13:35:25;17.50;74.40
18392;DHT22;9322;50.932;5.318;2022-10-19T13:40:54;17.50;74.90
18392;DHT22;9322;50.932;5.318;2022-10-19T13:43:27;17.50;77.20
18392;DHT22;9322;50.932;5.318;2022-10-19T13:46:12;17.20;78.30
18392;DHT22;9322;50.932;5.318;2022-10-19T14:11:35;17.60;82.90
18392;DHT22;9322;50.932;5.318;2022-10-19T14:16:46;17.00;91.60
18392;DHT22;9322;50.932;5.318;2022-10-19T14:19:13;17.00;92.10
18392;DHT22;9322;50.932;5.318;2022-10-19T14:21:49;17.20;90.70
18392;DHT22;9322;50.932;5.318;2022-10-19T14:24:20;17.10;92.30
18392;DHT22;9322;50.932;5.318;2022-10-19T14:26:46;17.00;94.40
18392;DHT22;9322;50.932;5.318;2022-10-19T14:29:12;17.10;95.10
18392;DHT22;9322;50.932;5.318;2022-10-19T14:31:38;17.00;96.00
18392;DHT22;9322;50.932;5.318;2022-10-19T14:34:07;16.80;99.10
18392;DHT22;9322;50.932;5.318;2022-10-19T14:36:38;16.80;99.90
18392;DHT22;9322;50.932;5.318;2022-10-19T14:39:30;16.70;99.90
18392;DHT22;9322;50.932;5.318;2022-10-19T14:41:55;16.70;99.90
18392;DHT22;9322;50.932;5.318;2022-10-19T14:44:41;16.60;99.90
18392;DHT22;9322;50.932;5.318;2022-10-19T14:47:17;16.70;99.90
18392;DHT22;9322;50.932;5.318;2022-10-19T14:49:44;16.70;99.90
18392;DHT22;9322;50.932;5.318;2022-10-19T14:52:13;16.70;99.90
18392;DHT22;9322;50.932;5.318;2022-10-19T14:54:44;16.70;99.90
18392;DHT22;9322;50.932;5.318;2022-10-19T14:57:37;16.90;99.90
18392;DHT22;9322;50.932;5.318;2022-10-19T15:00:06;17.00;99.90
18392;DHT22;9322;50.932;5.318;2022-10-19T15:02:38;17.00;99.90
18392;DHT22;9322;50.932;5.318;2022-10-19T15:05:06;17.00;99.90
18392;DHT22;9322;50.932;5.318;2022-10-19T15:07:41;16.90;99.90
18392;DHT22;9322;50.932;5.318;2022-10-19T15:10:23;16.90;99.90
18392;DHT22;9322;50.932;5.318;2022-10-19T15:12:55;16.80;99.90
18392;DHT22;9322;50.932;5.318;2022-10-19T15:15:24;16.70;99.90
18392;DHT22;9322;50.932;5.318;2022-10-19T15:17:53;16.50;99.90
18392;DHT22;9322;50.932;5.318;2022-10-19T15:22:54;16.30;99.90
18392;DHT22;9322;50.932;5.318;2022-10-19T15:25:34;16.40;99.90
18392;DHT22;9322;50.932;5.318;2022-10-19T15:28:29;16.30;99.90
18392;DHT22;9322;50.932;5.318;2022-10-19T15:31:00;16.20;99.90
18392;DHT22;9322;50.932;5.318;2022-10-19T15:33:28;16.20;99.90
18392;DHT22;9322;50.932;5.318;2022-10-19T15:36:08;16.30;99.90
18392;DHT22;9322;50.932;5.318;2022-10-19T15:41:27;16.30;99.90
18392;DHT22;9322;50.932;5.318;2022-10-19T15:43:58;16.10;99.90
18392;DHT22;9322;50.932;5.318;2022-10-19T15:46:32;16.00;99.90
18392;DHT22;9322;50.932;5.318;2022-10-19T15:50:00;16.00;99.90
18392;DHT22;9322;50.932;5.318;2022-10-19T15:51:54;16.00;99.90
18392;DHT22;9322;50.932;5.318;2022-10-19T15:54:20;16.00;99.90
18392;DHT22;9322;50.932;5.318;2022-10-19T15:56:49;16.00;99.90
18392;DHT22;9322;50.932;5.318;2022-10-19T15:59:20;15.90;99.90
18392;DHT22;9322;50.932;5.318;2022-10-19T16:01:46;15.70;99.90
18392;DHT22;9322;50.932;5.318;2022-10-19T16:04:13;15.60;99.90
18392;DHT22;9322;50.932;5.318;2022-10-19T16:06:41;15.70;99.90
18392;DHT22;9322;50.932;5.318;2022-10-19T16:09:15;15.80;99.90
18392;DHT22;9322;50.932;5.318;2022-10-19T16:11:41;15.80;99.90
18392;DHT22;9322;50.932;5.318;2022-10-19T16:14:06;15.60;99.90
18392;DHT22;9322;50.932;5.318;2022-10-19T16:16:32;15.60;99.90
18392;DHT22;9322;50.932;5.318;2022-10-19T16:18:59;15.50;99.90
18392;DHT22;9322;50.932;5.318;2022-10-19T16:21:29;15.60;99.90
18392;DHT22;9322;50.932;5.318;2022-10-19T16:23:55;15.60;99.90
18392;DHT22;9322;50.932;5.318;2022-10-19T16:26:21;15.60;99.90
18392;DHT22;9322;50.932;5.318;2022-10-19T16:28:47;15.40;99.90
18392;DHT22;9322;50.932;5.318;2022-10-19T16:31:13;15.40;99.90
18392;DHT22;9322;50.932;5.318;2022-10-19T16:33:39;15.40;99.90
18392;DHT22;9322;50.932;5.318;2022-10-19T16:36:06;15.30;99.90
18392;DHT22;9322;50.932;5.318;2022-10-19T16:38:33;15.40;99.90
18392;DHT22;9322;50.932;5.318;2022-10-19T16:41:01;15.40;99.90
18392;DHT22;9322;50.932;5.318;2022-10-19T16:43:27;15.30;99.90
18392;DHT22;9322;50.932;5.318;2022-10-19T16:45:52;15.30;99.90
18392;DHT22;9322;50.932;5.318;2022-10-19T16:48:18;15.30;99.90
18392;DHT22;9322;50.932;5.318;2022-10-19T16:50:44;15.40;99.90
18392;DHT22;9322;50.932;5.318;2022-10-19T16:53:09;15.30;99.90
18392;DHT22;9322;50.932;5.318;2022-10-19T16:55:36;15.20;99.90
18392;DHT22;9322;50.932;5.318;2022-10-19T16:58:02;15.20;99.90
18392;DHT22;9322;50.932;5.318;2022-10-19T17:00:27;15.10;99.90
18392;DHT22;9322;50.932;5.318;2022-10-19T17:02:53;15.00;99.90
18392;DHT22;9322;50.932;5.318;2022-10-19T17:05:19;15.10;99.90
18392;DHT22;9322;50.932;5.318;2022-10-19T17:07:44;15.20;99.90
18392;DHT22;9322;50.932;5.318;2022-10-19T17:10:10;15.20;99.90
18392;DHT22;9322;50.932;5.318;2022-10-19T17:12:38;15.20;99.90
18392;DHT22;9322;50.932;5.318;2022-10-19T17:15:05;15.10;99.90
18392;DHT22;9322;50.932;5.318;2022-10-19T17:17:31;15.10;99.90
18392;DHT22;9322;50.932;5.318;2022-10-19T17:19:57;15.10;99.90
18392;DHT22;9322;50.932;5.318;2022-10-19T17:22:22;15.30;99.90
18392;DHT22;9322;50.932;5.318;2022-10-19T17:24:48;15.10;99.90
18392;DHT22;9322;50.932;5.318;2022-10-19T17:27:14;15.10;99.90
18392;DHT22;9322;50.932;5.318;2022-10-19T17:29:39;15.10;99.90
18392;DHT22;9322;50.932;5.318;2022-10-19T17:32:05;15.10;99.90
18392;DHT22;9322;50.932;5.318;2022-10-19T17:34:31;15.10;99.90
18392;DHT22;9322;50.932;5.318;2022-10-19T17:36:57;15.10;99.90
18392;DHT22;9322;50.932;5.318;2022-10-19T17:39:23;15.00;99.90
18392;DHT22;9322;50.932;5.318;2022-10-19T17:41:50;15.00;99.90
18392;DHT22;9322;50.932;5.318;2022-10-19T17:44:17;15.00;99.90
18392;DHT22;9322;50.932;5.318;2022-10-19T17:46:43;15.10;99.90
18392;DHT22;9322;50.932;5.318;2022-10-19T17:49:09;15.10;99.90
18392;DHT22;9322;50.932;5.318;2022-10-19T17:51:36;15.00;99.90
18392;DHT22;9322;50.932;5.318;2022-10-19T17:54:04;15.10;99.90
18392;DHT22;9322;50.932;5.318;2022-10-19T17:56:31;15.00;99.90
18392;DHT22;9322;50.932;5.318;2022-10-19T17:58:57;15.00;99.90
18392;DHT22;9322;50.932;5.318;2022-10-19T18:01:24;15.00;99.90
18392;DHT22;9322;50.932;5.318;2022-10-19T18:03:50;14.90;99.90
18392;DHT22;9322;50.932;5.318;2022-10-19T18:08:48;14.90;99.90
18392;DHT22;9322;50.932;5.318;2022-10-19T18:11:21;14.90;99.90
18392;DHT22;9322;50.932;5.318;2022-10-19T18:13:48;14.90;99.90
18392;DHT22;9322;50.932;5.318;2022-10-19T18:16:17;15.00;99.90
18392;DHT22;9322;50.932;5.318;2022-10-19T18:18:45;15.00;99.90
18392;DHT22;9322;50.932;5.318;2022-10-19T18:21:14;15.00;99.90
18392;DHT22;9322;50.932;5.318;2022-10-19T18:23:40;15.00;99.90
18392;DHT22;9322;50.932;5.318;2022-10-19T18:26:08;14.90;99.90
18392;DHT22;9322;50.932;5.318;2022-10-19T18:28:35;14.90;99.90
18392;DHT22;9322;50.932;5.318;2022-10-19T18:31:07;14.90;99.90